• Join FlightAware (Why Join?)
  • Login
  • US Flag 
10:26AM EDT


 

Airport Tracker/Info


-or-


 

Live Flight TrackerFlight Track Log ✈ UAL6008 ✈ 22-May-2013 ✈ KMHT - KORD

Flight Track Log - Related Links

Times and Time Zones

All times are in EDT time to prevent confusion due to time zone crossing. See the UAL6008 flight status page for this flight to view local times or setup timezone preferences in your user account.

Time Position Orientation Groundspeed Altitude Reporting Facility
EDT Latitude Longitude Course Direction KTS MPH feet Rate Location/Type
06:44AM 42.9500 -71.4167 36° Northeast 168 193 1,100  Level KA90
06:45AM 42.9833 -71.3833 36° Northeast 203 234 2,100 1,320 Climbing KA90
06:47AM 43.0878 -71.4222 345° North 214 246 4,700 1,620 Climbing Boston Center
06:48AM 43.1133 -71.4958 295° West 219 252 6,800 2,100 Climbing Boston Center
06:49AM 43.1411 -71.5892 292° West 237 273 8,900 1,920 Climbing Boston Center
06:50AM 43.1419 -71.6717 271° West 242 278 10,700 1,680 Climbing Boston Center
06:51AM 43.1444 -71.7742 272° West 247 284 12,300 1,560 Climbing Boston Center
06:52AM 43.1472 -71.8767 272° West 263 303 13,900 1,500 Climbing Boston Center
06:53AM 43.1497 -71.9792 272° West 269 310 15,300 1,500 Climbing Boston Center
06:54AM 43.1522 -72.0814 272° West 276 318 16,900 1,320 Climbing Boston Center
06:55AM 43.1544 -72.1867 272° West 271 312 18,000 1,080 Climbing Boston Center
06:56AM 43.1567 -72.2808 272° West 271 312 19,100 1,140 Climbing Boston Center
06:57AM 43.1589 -72.3889 272° West 276 318 20,300 1,200 Climbing Boston Center
06:58AM 43.1611 -72.4969 272° West 276 318 21,500 1,200 Climbing Boston Center
06:59AM 43.1631 -72.6053 271° West 281 323 22,700 1,200 Climbing Boston Center
07:00AM 43.1650 -72.7192 271° West 292 336 23,900 1,140 Climbing Boston Center
07:01AM 43.1667 -72.8331 271° West 292 336 25,000 1,020 Climbing Boston Center
07:02AM 43.1683 -72.9467 271° West 292 336 26,000 960 Climbing Boston Center
07:03AM 43.1697 -73.0636 271° West 297 342 27,000 960 Climbing Boston Center
07:04AM 43.1711 -73.1831 271° West 308 354 28,000 1,020 Climbing Boston Center
07:05AM 43.1725 -73.2997 271° West 314 361 29,100 1,200 Climbing Boston Center
07:06AM 43.1714 -73.4250 269° West 307 353 30,500 1,140 Climbing Boston Center
07:07AM 43.1703 -73.5447 269° West 307 353 31,400 900 Climbing Boston Center
07:08AM 43.1711 -73.6614 271° West 312 359 32,400 900 Climbing Boston Center
07:09AM 43.1719 -73.7808 271° West 312 359 33,300 900 Climbing Boston Center
07:10AM 43.1728 -73.8947 271° West 312 359 34,200 900 Climbing Boston Center
07:11AM 43.1733 -74.0089 270° West 306 352 35,200 780 Climbing Boston Center
07:12AM 43.1736 -74.1197 270° West 306 352 35,800 360 Climbing Boston Center
07:13AM 43.1742 -74.2336 270° West 301 346 36,000 60 Climbing Boston Center
07:14AM 43.1742 -74.3561 270° West 309 356 36,000  Level Boston Center
07:15AM 43.1742 -74.4842 270° West 323 372 36,000  Level Boston Center
07:16AM 43.1736 -74.6181 270° West 345 397 36,000  Level Boston Center
07:17AM 43.1750 -74.7575 271° West 358 412 36,000  Level Boston Center
07:18AM 43.1722 -74.9000 269° West 369 425 36,000  Level Boston Center
07:19AM 43.1750 -75.0481 272° West 379 436 36,000  Level Boston Center
07:20AM 43.1736 -75.1933 269° West 384 442 36,000  Level Boston Center
07:21AM 43.1742 -75.3442 270° West 384 442 36,000  Level Boston Center
07:22AM 43.1767 -75.4894 271° West 389 448 36,000  Level Boston Center
07:23AM 43.1747 -75.6375 269° West 384 442 36,000  Level Boston Center
07:24AM 43.1758 -75.8114 271° West 384 442 36,000  Level Boston Center
07:25AM 43.1756 -75.9567 270° West 384 442 36,000  Level Boston Center
07:27AM 43.1667 -76.2000 267° West 390 449 36,000  Level Toronto Center
07:28AM 43.1667 -76.3667 270° West 390 449 36,000  Level Toronto Center
07:29AM 43.1500 -76.5000 260° West 390 449 36,000  Level Toronto Center
07:30AM 43.1706 -76.7086 278° West 402 463 36,000  Level Cleveland Center
07:31AM 43.1692 -76.8569 269° West 390 449 36,000  Level Cleveland Center
07:32AM 43.1656 -77.0050 268° West 384 442 36,000  Level Cleveland Center
07:33AM 43.1658 -77.1503 270° West 390 449 36,000  Level Cleveland Center
07:34AM 43.1617 -77.2928 268° West 385 443 36,000  Level Cleveland Center
07:35AM 43.1594 -77.4381 269° West 385 443 36,000  Level Cleveland Center
07:36AM 43.1569 -77.5833 269° West 385 443 36,000  Level Cleveland Center
07:37AM 43.1567 -77.7286 270° West 385 443 36,000  Level Cleveland Center
07:38AM 43.1539 -77.8767 269° West 385 443 36,000  Level Cleveland Center
07:39AM 43.1489 -78.0222 267° West 385 443 36,000  Level Cleveland Center
07:40AM 43.1478 -78.1675 269° West 385 443 36,000  Level Cleveland Center
07:41AM 43.1422 -78.3097 267° West 385 443 36,000  Level Cleveland Center
07:42AM 43.1408 -78.4550 269° West 385 443 36,000  Level Cleveland Center
07:43AM 43.1372 -78.6003 268° West 385 443 36,000  Level Cleveland Center
07:44AM 43.1314 -78.7456 267° West 385 443 36,000  Level Cleveland Center
07:45AM 43.1294 -78.8906 269° West 385 443 36,000  Level Cleveland Center
07:46AM 43.1167 -78.9667 257° West 380 437 36,000  Level Toronto Center
07:47AM 43.1167 -79.1333 270° West 390 449 36,000  Level Toronto Center
07:48AM 43.1000 -79.2667 260° West 390 449 36,000  Level Toronto Center
07:49AM 43.1000 -79.4333 270° West 390 449 36,000  Level Toronto Center
07:50AM 43.1000 -79.5667 270° West 380 437 36,000  Level Toronto Center
07:51AM 43.0833 -79.7167 261° West 380 437 36,000  Level Toronto Center
07:52AM 43.0833 -79.8667 270° West 380 437 36,000  Level Toronto Center
07:53AM 43.0833 -80.0000 270° West 380 437 36,000  Level Toronto Center
07:54AM 43.0667 -80.1500 261° West 380 437 36,000  Level Toronto Center
07:55AM 43.0667 -80.3000 270° West 380 437 36,000  Level Toronto Center
07:56AM 43.0667 -80.4333 270° West 380 437 36,000  Level Toronto Center
07:57AM 43.0500 -80.5833 261° West 380 437 36,000  Level Toronto Center
07:58AM 43.0500 -80.7333 270° West 380 437 36,000  Level Toronto Center
07:59AM 43.0333 -80.8833 261° West 380 437 36,000  Level Toronto Center
08:00AM 43.0167 -81.0167 260° West 380 437 36,000  Level Toronto Center
08:01AM 43.0167 -81.1667 270° West 380 437 36,000  Level Toronto Center
08:02AM 43.0167 -81.3000 270° West 380 437 36,000  Level Toronto Center
08:03AM 43.0167 -81.4500 270° West 380 437 36,000  Level Toronto Center
08:04AM 43.0167 -81.6000 270° West 380 437 36,000  Level Toronto Center
08:05AM 43.0167 -81.7500 270° West 380 437 36,000  Level Toronto Center
08:06AM 43.0167 -81.8833 270° West 380 437 36,000  Level Toronto Center
08:07AM 43.0000 -82.0500 262° West 380 437 36,000  Level Toronto Center
08:08AM 43.0000 -82.1833 270° West 380 437 36,000  Level Toronto Center
08:09AM 43.0000 -82.3167 270° West 380 437 36,000  Level Toronto Center
08:10AM 43.0000 -82.4833 270° West 380 437 36,000  Level Toronto Center
08:11AM 43.0000 -82.6167 270° West 390 449 36,000  Level Toronto Center
08:12AM 42.9833 -82.7833 262° West 390 449 36,000  Level Toronto Center
08:13AM 42.9833 -82.9167 270° West 390 449 36,000  Level Toronto Center
08:14AM 42.9833 -83.0667 270° West 390 449 36,000  Level Toronto Center
08:15AM 42.9667 -83.2167 261° West 390 449 36,000  Level Toronto Center
08:16AM 42.9667 -83.3667 270° West 390 449 36,000  Level Toronto Center
08:17AM 42.9667 -83.5000 270° West 390 449 36,000  Level Toronto Center
08:18AM 42.9667 -83.6667 270° West 390 449 36,000  Level Toronto Center
08:19AM 42.9642 -83.7597 268° West 395 455 36,000  Level Chicago Center
08:19AM 42.9581 -83.8486 265° West 394 453 36,000  Level Cleveland Center
08:20AM 42.9411 -83.9953 261° West 400 460 36,000 -600 Level Cleveland Center
08:21AM 42.9264 -84.1419 262° West 400 460 34,800 -1,320 Descending Cleveland Center
08:22AM 42.9211 -84.1989 263° West 387 445 34,100 -1,440 Descending Chicago Center
08:23AM 42.9089 -84.3397 263° West 377 434 32,600 -1,020 Descending Chicago Center
08:24AM 42.8942 -84.4828 262° West 380 437 32,000 -300 Descending Chicago Center
08:25AM 42.8797 -84.6294 262° West 390 449 32,000  Level Chicago Center
08:26AM 42.8608 -84.8086 262° West 397 457 32,000  Level Chicago Center
08:27AM 42.8450 -84.9572 262° West 398 458 32,000  Level Chicago Center
08:28AM 42.8297 -85.1069 262° West 400 460 32,000  Level Chicago Center
08:29AM 42.8122 -85.2569 261° West 401 461 32,000 -540 Level Chicago Center
08:30AM 42.7967 -85.4056 262° West 399 459 31,000 -1,740 Descending Chicago Center
08:31AM 42.7772 -85.5542 260° West 397 457 28,500 -2,280 Descending Chicago Center
08:32AM 42.7428 -85.7361 256° West 411 473 26,400 -2,160 Descending Chicago Center
08:33AM 42.7150 -85.8911 256° West 418 481 24,100 -2,700 Descending Chicago Center
08:34AM 42.6869 -86.0400 256° West 408 470 20,900 -2,040 Descending Chicago Center
08:35AM 42.6619 -86.1786 256° West 384 442 20,000 -600 Descending Chicago Center
08:36AM 42.6367 -86.3161 256° West 376 433 19,700 -1,260 Descending Chicago Center
08:37AM 42.6103 -86.4578 256° West 383 441 17,500 -1,860 Descending Chicago Center
08:38AM 42.5844 -86.5969 256° West 378 435 15,900 -1,440 Descending Chicago Center
08:39AM 42.5597 -86.7278 256° West 363 418 14,600 -1,500 Descending Chicago Center
08:40AM 42.5208 -86.8706 250° West 338 389 12,800 -1,680 Descending Chicago Center
08:41AM 42.4881 -86.9864 249° West 333 383 11,200 -1,380 Descending Chicago Center
08:42AM 42.4561 -87.1044 250° West 333 383 10,000 -720 Descending Chicago Center
08:44AM 42.4272 -87.2119 250° West 312 359 9,800 -540 Descending Chicago Center
08:45AM 42.4025 -87.3039 250° West 272 313 9,000 -660 Descending Chicago Center
08:46AM 42.3722 -87.4153 250° West 268 308 8,500 -780 Descending Chicago Center
08:47AM 42.3442 -87.5131 249° West 273 314 7,400 -1,020 Descending Chicago Center
08:48AM 42.2886 -87.5431 202° Southwest 242 278 6,400 -780 Descending Chicago Center
08:49AM 42.2219 -87.5417 179° South 240 276 5,900 -660 Descending Chicago Center
08:50AM 42.1500 -87.5317 174° South 255 293 5,100 -960 Descending Chicago Center
08:51AM 42.0906 -87.4597 138° Southeast 251 289 4,000 -540 Descending Chicago Center
08:52AM 42.0378 -87.4189 150° Southeast 244 281 4,000  Level Chicago Center
08:53AM 41.9972 -87.4500 210° Southwest 226 260 4,000  Level Chicago Center
08:54AM 42.0028 -87.5258 276° West 213 245 4,000  Level Chicago Center
08:55AM 42.0028 -87.5911 270° West 191 220 4,000 -120 Level Chicago Center
08:56AM 42.0025 -87.6728 270° West 185 213 3,800 -540 Descending Chicago Center
08:57AM 42.0033 -87.7406 271° West 184 212 2,900 -900 Descending Chicago Center
08:58AM 42.0031 -87.8072 270° West 182 209 2,000 -780 Descending Chicago Center
08:59AM 42.0019 -87.8619 268° West 170 196 1,300 -480 Descending Chicago Center
09:00AM 42.0019 -87.9153 270° West 166 191 1,100 -240 Descending Chicago Center
09:02AM 41.9817 -87.9067 217° Southwest  Level Estimated